sensor_id;sensor_type;location;lat;lon;timestamp;P1;durP1;ratioP1;P2;durP2;ratioP2
61248;SDS011;47119;49.130;9.218;2022-12-18T00:00:04;10.48;;;8.15;;
61248;SDS011;47119;49.130;9.218;2022-12-18T00:02:39;21.85;;;12.07;;
61248;SDS011;47119;49.130;9.218;2022-12-18T00:05:07;13.30;;;10.73;;
61248;SDS011;47119;49.130;9.218;2022-12-18T00:07:36;18.73;;;9.43;;
61248;SDS011;47119;49.130;9.218;2022-12-18T00:10:04;16.67;;;9.65;;
61248;SDS011;47119;49.130;9.218;2022-12-18T00:12:37;17.35;;;10.23;;
61248;SDS011;47119;49.130;9.218;2022-12-18T00:15:07;21.75;;;8.45;;
61248;SDS011;47119;49.130;9.218;2022-12-18T00:17:35;15.05;;;9.70;;
61248;SDS011;47119;49.130;9.218;2022-12-18T00:20:02;9.43;;;8.27;;
61248;SDS011;47119;49.130;9.218;2022-12-18T00:22:33;22.67;;;9.07;;
61248;SDS011;47119;49.130;9.218;2022-12-18T00:25:04;7.07;;;6.40;;
61248;SDS011;47119;49.130;9.218;2022-12-18T00:27:31;9.63;;;8.35;;
61248;SDS011;47119;49.130;9.218;2022-12-18T00:29:58;10.65;;;8.13;;
61248;SDS011;47119;49.130;9.218;2022-12-18T00:32:26;14.75;;;9.95;;
61248;SDS011;47119;49.130;9.218;2022-12-18T00:34:53;12.27;;;9.18;;
61248;SDS011;47119;49.130;9.218;2022-12-18T00:37:23;9.10;;;8.15;;
61248;SDS011;47119;49.130;9.218;2022-12-18T00:39:50;13.25;;;8.98;;
61248;SDS011;47119;49.130;9.218;2022-12-18T00:42:23;20.23;;;11.43;;
61248;SDS011;47119;49.130;9.218;2022-12-18T00:45:08;17.92;;;10.15;;
61248;SDS011;47119;49.130;9.218;2022-12-18T00:47:35;18.42;;;10.27;;
61248;SDS011;47119;49.130;9.218;2022-12-18T00:50:02;9.07;;;7.50;;
61248;SDS011;47119;49.130;9.218;2022-12-18T00:52:31;12.63;;;8.25;;
61248;SDS011;47119;49.130;9.218;2022-12-18T00:55:00;17.70;;;8.80;;
61248;SDS011;47119;49.130;9.218;2022-12-18T00:57:28;9.85;;;7.28;;
61248;SDS011;47119;49.130;9.218;2022-12-18T00:59:55;10.10;;;7.65;;
61248;SDS011;47119;49.130;9.218;2022-12-18T01:02:25;18.45;;;7.97;;
61248;SDS011;47119;49.130;9.218;2022-12-18T01:04:52;11.10;;;7.05;;
61248;SDS011;47119;49.130;9.218;2022-12-18T01:07:19;8.35;;;7.15;;
61248;SDS011;47119;49.130;9.218;2022-12-18T01:09:46;21.40;;;11.23;;
61248;SDS011;47119;49.130;9.218;2022-12-18T01:12:16;19.48;;;10.23;;
61248;SDS011;47119;49.130;9.218;2022-12-18T01:14:51;14.68;;;10.25;;
61248;SDS011;47119;49.130;9.218;2022-12-18T01:17:22;15.70;;;9.88;;
61248;SDS011;47119;49.130;9.218;2022-12-18T01:19:53;14.32;;;7.45;;
61248;SDS011;47119;49.130;9.218;2022-12-18T01:24:53;8.07;;;6.90;;
61248;SDS011;47119;49.130;9.218;2022-12-18T01:27:21;9.10;;;7.80;;
61248;SDS011;47119;49.130;9.218;2022-12-18T01:29:52;10.32;;;7.80;;
61248;SDS011;47119;49.130;9.218;2022-12-18T01:32:19;11.07;;;6.43;;
61248;SDS011;47119;49.130;9.218;2022-12-18T01:34:51;7.10;;;6.00;;
61248;SDS011;47119;49.130;9.218;2022-12-18T01:37:22;13.57;;;8.45;;
61248;SDS011;47119;49.130;9.218;2022-12-18T01:39:50;30.92;;;7.53;;
61248;SDS011;47119;49.130;9.218;2022-12-18T01:42:19;13.75;;;8.18;;
61248;SDS011;47119;49.130;9.218;2022-12-18T01:44:57;14.70;;;6.90;;
61248;SDS011;47119;49.130;9.218;2022-12-18T01:47:32;12.90;;;6.43;;
61248;SDS011;47119;49.130;9.218;2022-12-18T01:50:06;10.57;;;8.68;;
61248;SDS011;47119;49.130;9.218;2022-12-18T01:52:40;17.92;;;9.40;;
61248;SDS011;47119;49.130;9.218;2022-12-18T01:55:11;12.00;;;7.80;;
61248;SDS011;47119;49.130;9.218;2022-12-18T01:57:41;8.80;;;6.60;;
61248;SDS011;47119;49.130;9.218;2022-12-18T02:00:14;13.32;;;8.63;;
61248;SDS011;47119;49.130;9.218;2022-12-18T02:02:45;13.57;;;7.85;;
61248;SDS011;47119;49.130;9.218;2022-12-18T02:05:14;14.27;;;7.00;;
61248;SDS011;47119;49.130;9.218;2022-12-18T02:07:54;12.10;;;7.32;;
61248;SDS011;47119;49.130;9.218;2022-12-18T02:10:41;7.85;;;6.13;;
61248;SDS011;47119;49.130;9.218;2022-12-18T02:13:25;8.00;;;6.10;;
61248;SDS011;47119;49.130;9.218;2022-12-18T02:16:05;9.80;;;6.35;;
61248;SDS011;47119;49.130;9.218;2022-12-18T02:18:45;11.05;;;8.00;;
61248;SDS011;47119;49.130;9.218;2022-12-18T02:21:21;12.65;;;7.32;;
61248;SDS011;47119;49.130;9.218;2022-12-18T02:24:06;7.68;;;6.88;;
61248;SDS011;47119;49.130;9.218;2022-12-18T02:26:51;8.65;;;7.43;;
61248;SDS011;47119;49.130;9.218;2022-12-18T02:29:27;8.80;;;5.60;;
61248;SDS011;47119;49.130;9.218;2022-12-18T02:32:02;8.90;;;6.57;;
61248;SDS011;47119;49.130;9.218;2022-12-18T02:34:38;10.15;;;8.18;;
61248;SDS011;47119;49.130;9.218;2022-12-18T02:37:12;11.45;;;7.32;;
61248;SDS011;47119;49.130;9.218;2022-12-18T02:39:44;15.25;;;7.95;;
61248;SDS011;47119;49.130;9.218;2022-12-18T02:42:17;12.68;;;5.72;;
61248;SDS011;47119;49.130;9.218;2022-12-18T02:44:48;10.40;;;7.82;;
61248;SDS011;47119;49.130;9.218;2022-12-18T02:47:24;18.15;;;9.70;;
61248;SDS011;47119;49.130;9.218;2022-12-18T02:50:02;11.38;;;6.82;;
61248;SDS011;47119;49.130;9.218;2022-12-18T02:52:41;9.90;;;7.07;;
61248;SDS011;47119;49.130;9.218;2022-12-18T02:55:28;8.05;;;7.25;;
61248;SDS011;47119;49.130;9.218;2022-12-18T02:58:12;12.63;;;7.10;;
61248;SDS011;47119;49.130;9.218;2022-12-18T03:00:52;9.43;;;6.85;;
61248;SDS011;47119;49.130;9.218;2022-12-18T03:03:26;8.68;;;6.70;;
61248;SDS011;47119;49.130;9.218;2022-12-18T03:06:06;11.35;;;7.45;;
61248;SDS011;47119;49.130;9.218;2022-12-18T03:08:46;10.10;;;7.30;;
61248;SDS011;47119;49.130;9.218;2022-12-18T03:11:20;8.50;;;6.75;;
61248;SDS011;47119;49.130;9.218;2022-12-18T03:14:11;9.25;;;7.13;;
61248;SDS011;47119;49.130;9.218;2022-12-18T03:16:47;26.40;;;11.55;;
61248;SDS011;47119;49.130;9.218;2022-12-18T03:19:22;17.63;;;8.05;;
61248;SDS011;47119;49.130;9.218;2022-12-18T03:22:00;15.43;;;9.23;;
61248;SDS011;47119;49.130;9.218;2022-12-18T03:24:41;21.00;;;10.50;;
61248;SDS011;47119;49.130;9.218;2022-12-18T03:27:10;13.27;;;8.90;;
61248;SDS011;47119;49.130;9.218;2022-12-18T03:29:46;9.55;;;7.95;;
61248;SDS011;47119;49.130;9.218;2022-12-18T03:32:27;15.70;;;8.30;;
61248;SDS011;47119;49.130;9.218;2022-12-18T03:35:04;12.25;;;7.75;;
61248;SDS011;47119;49.130;9.218;2022-12-18T03:37:36;16.73;;;9.55;;
61248;SDS011;47119;49.130;9.218;2022-12-18T03:40:03;13.25;;;9.38;;
61248;SDS011;47119;49.130;9.218;2022-12-18T03:42:36;11.18;;;8.98;;
61248;SDS011;47119;49.130;9.218;2022-12-18T03:45:20;9.48;;;7.15;;
61248;SDS011;47119;49.130;9.218;2022-12-18T03:47:59;12.35;;;8.73;;
61248;SDS011;47119;49.130;9.218;2022-12-18T03:50:39;10.33;;;7.87;;
61248;SDS011;47119;49.130;9.218;2022-12-18T03:53:16;16.33;;;8.27;;
61248;SDS011;47119;49.130;9.218;2022-12-18T03:55:52;12.82;;;9.55;;
61248;SDS011;47119;49.130;9.218;2022-12-18T03:58:24;12.25;;;8.00;;
61248;SDS011;47119;49.130;9.218;2022-12-18T04:01:09;7.45;;;6.38;;
61248;SDS011;47119;49.130;9.218;2022-12-18T04:03:44;9.20;;;7.35;;
61248;SDS011;47119;49.130;9.218;2022-12-18T04:06:17;19.85;;;10.95;;
61248;SDS011;47119;49.130;9.218;2022-12-18T04:08:46;29.38;;;9.52;;
61248;SDS011;47119;49.130;9.218;2022-12-18T04:11:19;10.90;;;7.53;;
61248;SDS011;47119;49.130;9.218;2022-12-18T04:13:47;14.25;;;7.35;;
61248;SDS011;47119;49.130;9.218;2022-12-18T04:16:25;17.92;;;8.82;;
61248;SDS011;47119;49.130;9.218;2022-12-18T04:18:58;21.45;;;8.77;;
61248;SDS011;47119;49.130;9.218;2022-12-18T04:21:28;11.13;;;8.15;;
61248;SDS011;47119;49.130;9.218;2022-12-18T04:23:55;9.13;;;7.18;;
61248;SDS011;47119;49.130;9.218;2022-12-18T04:26:24;8.13;;;6.43;;
61248;SDS011;47119;49.130;9.218;2022-12-18T04:29:17;17.02;;;10.45;;
61248;SDS011;47119;49.130;9.218;2022-12-18T04:31:46;7.00;;;6.22;;
61248;SDS011;47119;49.130;9.218;2022-12-18T04:34:14;7.68;;;6.70;;
61248;SDS011;47119;49.130;9.218;2022-12-18T04:36:50;11.25;;;6.38;;
61248;SDS011;47119;49.130;9.218;2022-12-18T04:39:21;17.25;;;8.73;;
61248;SDS011;47119;49.130;9.218;2022-12-18T04:41:50;20.05;;;10.70;;
61248;SDS011;47119;49.130;9.218;2022-12-18T04:44:19;12.45;;;9.50;;
61248;SDS011;47119;49.130;9.218;2022-12-18T04:46:52;19.00;;;10.70;;
61248;SDS011;47119;49.130;9.218;2022-12-18T04:49:49;17.25;;;9.57;;
61248;SDS011;47119;49.130;9.218;2022-12-18T04:52:16;11.25;;;8.18;;
61248;SDS011;47119;49.130;9.218;2022-12-18T04:54:43;12.43;;;8.20;;
61248;SDS011;47119;49.130;9.218;2022-12-18T04:57:31;15.27;;;7.32;;
61248;SDS011;47119;49.130;9.218;2022-12-18T05:00:28;14.07;;;8.02;;
61248;SDS011;47119;49.130;9.218;2022-12-18T05:03:01;16.85;;;7.65;;
61248;SDS011;47119;49.130;9.218;2022-12-18T05:05:42;10.63;;;6.28;;
61248;SDS011;47119;49.130;9.218;2022-12-18T05:08:09;13.13;;;7.82;;
61248;SDS011;47119;49.130;9.218;2022-12-18T05:10:40;12.90;;;6.82;;
61248;SDS011;47119;49.130;9.218;2022-12-18T05:13:10;16.98;;;10.10;;
61248;SDS011;47119;49.130;9.218;2022-12-18T05:15:50;10.48;;;8.60;;
61248;SDS011;47119;49.130;9.218;2022-12-18T05:18:27;18.67;;;11.82;;
61248;SDS011;47119;49.130;9.218;2022-12-18T05:21:00;9.80;;;8.20;;
61248;SDS011;47119;49.130;9.218;2022-12-18T05:23:31;13.88;;;10.07;;
61248;SDS011;47119;49.130;9.218;2022-12-18T05:26:02;7.38;;;6.55;;
61248;SDS011;47119;49.130;9.218;2022-12-18T05:28:33;15.65;;;7.68;;
61248;SDS011;47119;49.130;9.218;2022-12-18T05:31:02;13.45;;;8.85;;
61248;SDS011;47119;49.130;9.218;2022-12-18T05:33:34;10.15;;;7.25;;
61248;SDS011;47119;49.130;9.218;2022-12-18T05:36:03;9.70;;;8.10;;
61248;SDS011;47119;49.130;9.218;2022-12-18T05:38:35;13.27;;;8.13;;
61248;SDS011;47119;49.130;9.218;2022-12-18T05:41:05;11.63;;;7.90;;
61248;SDS011;47119;49.130;9.218;2022-12-18T05:43:36;12.93;;;7.47;;
61248;SDS011;47119;49.130;9.218;2022-12-18T05:46:05;13.38;;;9.48;;
61248;SDS011;47119;49.130;9.218;2022-12-18T05:48:35;11.95;;;7.22;;
61248;SDS011;47119;49.130;9.218;2022-12-18T05:51:05;13.82;;;9.00;;
61248;SDS011;47119;49.130;9.218;2022-12-18T05:53:35;10.05;;;7.93;;
61248;SDS011;47119;49.130;9.218;2022-12-18T05:56:09;11.85;;;9.45;;
61248;SDS011;47119;49.130;9.218;2022-12-18T05:58:41;14.93;;;7.38;;
61248;SDS011;47119;49.130;9.218;2022-12-18T06:01:09;9.68;;;6.97;;
61248;SDS011;47119;49.130;9.218;2022-12-18T06:03:42;10.63;;;7.68;;
61248;SDS011;47119;49.130;9.218;2022-12-18T06:06:13;10.38;;;6.68;;
61248;SDS011;47119;49.130;9.218;2022-12-18T06:08:43;11.93;;;5.90;;
61248;SDS011;47119;49.130;9.218;2022-12-18T06:11:10;11.82;;;6.85;;
61248;SDS011;47119;49.130;9.218;2022-12-18T06:13:49;25.08;;;8.90;;
61248;SDS011;47119;49.130;9.218;2022-12-18T06:16:23;17.77;;;8.85;;
61248;SDS011;47119;49.130;9.218;2022-12-18T06:19:29;9.13;;;6.50;;
61248;SDS011;47119;49.130;9.218;2022-12-18T06:22:18;9.65;;;7.35;;
61248;SDS011;47119;49.130;9.218;2022-12-18T06:24:55;12.05;;;8.07;;
61248;SDS011;47119;49.130;9.218;2022-12-18T06:27:27;8.65;;;7.32;;
61248;SDS011;47119;49.130;9.218;2022-12-18T06:30:14;15.32;;;8.32;;
61248;SDS011;47119;49.130;9.218;2022-12-18T06:32:54;15.05;;;9.55;;
61248;SDS011;47119;49.130;9.218;2022-12-18T06:35:40;13.77;;;7.63;;
61248;SDS011;47119;49.130;9.218;2022-12-18T06:38:18;16.42;;;9.85;;
61248;SDS011;47119;49.130;9.218;2022-12-18T06:40:55;14.93;;;7.95;;
61248;SDS011;47119;49.130;9.218;2022-12-18T06:43:34;20.05;;;9.23;;
61248;SDS011;47119;49.130;9.218;2022-12-18T06:46:22;7.70;;;5.57;;
61248;SDS011;47119;49.130;9.218;2022-12-18T06:49:14;21.48;;;8.48;;
61248;SDS011;47119;49.130;9.218;2022-12-18T06:51:46;20.52;;;8.75;;
61248;SDS011;47119;49.130;9.218;2022-12-18T06:54:41;8.65;;;6.88;;
61248;SDS011;47119;49.130;9.218;2022-12-18T06:57:19;19.75;;;9.23;;
61248;SDS011;47119;49.130;9.218;2022-12-18T07:00:13;9.95;;;7.63;;
61248;SDS011;47119;49.130;9.218;2022-12-18T07:02:46;10.32;;;6.47;;
61248;SDS011;47119;49.130;9.218;2022-12-18T07:05:13;18.67;;;7.43;;
61248;SDS011;47119;49.130;9.218;2022-12-18T07:08:02;10.00;;;6.78;;
61248;SDS011;47119;49.130;9.218;2022-12-18T07:10:41;15.50;;;6.63;;
61248;SDS011;47119;49.130;9.218;2022-12-18T07:13:12;12.93;;;5.80;;
61248;SDS011;47119;49.130;9.218;2022-12-18T07:16:07;9.10;;;6.63;;
61248;SDS011;47119;49.130;9.218;2022-12-18T07:18:42;10.15;;;6.20;;
61248;SDS011;47119;49.130;9.218;2022-12-18T07:21:15;14.15;;;8.65;;
61248;SDS011;47119;49.130;9.218;2022-12-18T07:23:55;8.48;;;6.38;;
61248;SDS011;47119;49.130;9.218;2022-12-18T07:26:27;19.67;;;8.88;;
61248;SDS011;47119;49.130;9.218;2022-12-18T07:28:57;11.68;;;7.22;;
61248;SDS011;47119;49.130;9.218;2022-12-18T07:31:44;6.68;;;5.70;;
61248;SDS011;47119;49.130;9.218;2022-12-18T07:34:12;10.82;;;6.88;;
61248;SDS011;47119;49.130;9.218;2022-12-18T07:36:44;13.23;;;5.55;;
61248;SDS011;47119;49.130;9.218;2022-12-18T07:41:48;6.47;;;5.43;;
61248;SDS011;47119;49.130;9.218;2022-12-18T07:44:39;4.80;;;3.70;;
61248;SDS011;47119;49.130;9.218;2022-12-18T07:47:08;6.10;;;4.85;;
61248;SDS011;47119;49.130;9.218;2022-12-18T07:49:35;6.65;;;5.28;;
61248;SDS011;47119;49.130;9.218;2022-12-18T07:52:14;3.85;;;3.50;;
61248;SDS011;47119;49.130;9.218;2022-12-18T07:54:56;4.75;;;4.25;;
61248;SDS011;47119;49.130;9.218;2022-12-18T07:57:23;9.38;;;6.03;;
61248;SDS011;47119;49.130;9.218;2022-12-18T07:59:54;4.28;;;3.30;;
61248;SDS011;47119;49.130;9.218;2022-12-18T08:02:30;5.75;;;4.45;;
61248;SDS011;47119;49.130;9.218;2022-12-18T08:04:59;3.60;;;3.30;;
61248;SDS011;47119;49.130;9.218;2022-12-18T08:07:30;2.63;;;2.53;;
61248;SDS011;47119;49.130;9.218;2022-12-18T08:10:00;5.05;;;3.80;;
61248;SDS011;47119;49.130;9.218;2022-12-18T08:12:28;4.07;;;3.28;;
61248;SDS011;47119;49.130;9.218;2022-12-18T08:14:59;7.45;;;4.18;;
61248;SDS011;47119;49.130;9.218;2022-12-18T08:17:37;5.05;;;4.60;;
61248;SDS011;47119;49.130;9.218;2022-12-18T08:20:09;3.53;;;2.33;;
61248;SDS011;47119;49.130;9.218;2022-12-18T08:26:19;4.22;;;3.80;;
61248;SDS011;47119;49.130;9.218;2022-12-18T08:29:23;4.35;;;3.95;;
61248;SDS011;47119;49.130;9.218;2022-12-18T08:31:51;3.50;;;3.20;;
61248;SDS011;47119;49.130;9.218;2022-12-18T08:34:32;3.13;;;2.90;;
61248;SDS011;47119;49.130;9.218;2022-12-18T08:37:00;4.45;;;4.00;;
61248;SDS011;47119;49.130;9.218;2022-12-18T08:39:38;4.57;;;3.13;;
61248;SDS011;47119;49.130;9.218;2022-12-18T08:42:09;3.17;;;2.90;;
61248;SDS011;47119;49.130;9.218;2022-12-18T08:45:05;4.45;;;3.20;;
61248;SDS011;47119;49.130;9.218;2022-12-18T08:47:53;3.33;;;3.13;;
61248;SDS011;47119;49.130;9.218;2022-12-18T08:50:22;4.80;;;2.95;;
61248;SDS011;47119;49.130;9.218;2022-12-18T08:53:17;4.15;;;3.75;;
61248;SDS011;47119;49.130;9.218;2022-12-18T08:56:20;2.72;;;2.35;;
61248;SDS011;47119;49.130;9.218;2022-12-18T09:03:05;5.00;;;3.17;;
61248;SDS011;47119;49.130;9.218;2022-12-18T09:05:58;2.95;;;2.67;;
61248;SDS011;47119;49.130;9.218;2022-12-18T09:08:38;5.47;;;3.88;;
61248;SDS011;47119;49.130;9.218;2022-12-18T09:11:19;4.05;;;3.85;;
61248;SDS011;47119;49.130;9.218;2022-12-18T09:13:49;4.15;;;3.78;;
61248;SDS011;47119;49.130;9.218;2022-12-18T09:16:19;1.80;;;1.70;;
61248;SDS011;47119;49.130;9.218;2022-12-18T09:18:47;4.70;;;3.33;;
61248;SDS011;47119;49.130;9.218;2022-12-18T09:21:31;3.90;;;3.53;;
61248;SDS011;47119;49.130;9.218;2022-12-18T09:24:32;7.03;;;4.85;;
61248;SDS011;47119;49.130;9.218;2022-12-18T09:27:04;4.75;;;3.35;;
61248;SDS011;47119;49.130;9.218;2022-12-18T09:29:45;3.70;;;3.28;;
61248;SDS011;47119;49.130;9.218;2022-12-18T09:33:02;3.35;;;3.13;;
61248;SDS011;47119;49.130;9.218;2022-12-18T09:36:14;4.88;;;3.42;;
61248;SDS011;47119;49.130;9.218;2022-12-18T09:39:31;2.90;;;2.67;;
61248;SDS011;47119;49.130;9.218;2022-12-18T09:42:30;2.63;;;2.42;;
61248;SDS011;47119;49.130;9.218;2022-12-18T09:46:05;4.47;;;3.83;;
61248;SDS011;47119;49.130;9.218;2022-12-18T09:49:42;1.98;;;1.88;;
61248;SDS011;47119;49.130;9.218;2022-12-18T09:52:56;4.72;;;4.32;;
61248;SDS011;47119;49.130;9.218;2022-12-18T09:55:58;3.35;;;2.88;;
61248;SDS011;47119;49.130;9.218;2022-12-18T09:58:54;3.22;;;3.00;;
61248;SDS011;47119;49.130;9.218;2022-12-18T10:02:11;5.40;;;4.07;;
61248;SDS011;47119;49.130;9.218;2022-12-18T10:04:56;3.80;;;3.47;;
61248;SDS011;47119;49.130;9.218;2022-12-18T10:07:53;3.47;;;2.88;;
61248;SDS011;47119;49.130;9.218;2022-12-18T10:10:52;7.22;;;4.85;;
61248;SDS011;47119;49.130;9.218;2022-12-18T10:14:00;2.92;;;2.67;;
61248;SDS011;47119;49.130;9.218;2022-12-18T10:17:35;8.68;;;4.65;;
61248;SDS011;47119;49.130;9.218;2022-12-18T10:21:09;4.05;;;3.10;;
61248;SDS011;47119;49.130;9.218;2022-12-18T10:23:53;2.08;;;1.80;;
61248;SDS011;47119;49.130;9.218;2022-12-18T10:26:58;6.85;;;4.57;;
61248;SDS011;47119;49.130;9.218;2022-12-18T10:29:49;3.60;;;3.20;;
61248;SDS011;47119;49.130;9.218;2022-12-18T10:32:18;4.97;;;4.00;;
61248;SDS011;47119;49.130;9.218;2022-12-18T10:34:57;2.67;;;2.47;;
61248;SDS011;47119;49.130;9.218;2022-12-18T10:37:29;5.55;;;4.80;;
61248;SDS011;47119;49.130;9.218;2022-12-18T10:40:06;3.72;;;3.08;;
61248;SDS011;47119;49.130;9.218;2022-12-18T10:42:40;6.03;;;3.50;;
61248;SDS011;47119;49.130;9.218;2022-12-18T10:45:35;4.55;;;2.45;;
61248;SDS011;47119;49.130;9.218;2022-12-18T10:48:17;4.57;;;3.30;;
61248;SDS011;47119;49.130;9.218;2022-12-18T10:51:10;7.70;;;4.53;;
61248;SDS011;47119;49.130;9.218;2022-12-18T10:54:06;6.85;;;5.22;;
61248;SDS011;47119;49.130;9.218;2022-12-18T10:56:43;3.80;;;3.45;;
61248;SDS011;47119;49.130;9.218;2022-12-18T10:59:11;5.88;;;4.65;;
61248;SDS011;47119;49.130;9.218;2022-12-18T11:01:48;3.05;;;2.75;;
61248;SDS011;47119;49.130;9.218;2022-12-18T11:04:22;7.10;;;3.92;;
61248;SDS011;47119;49.130;9.218;2022-12-18T11:06:52;6.38;;;3.58;;
61248;SDS011;47119;49.130;9.218;2022-12-18T11:09:25;5.60;;;4.18;;
61248;SDS011;47119;49.130;9.218;2022-12-18T11:11:55;8.57;;;4.15;;
61248;SDS011;47119;49.130;9.218;2022-12-18T11:14:25;4.05;;;3.15;;
61248;SDS011;47119;49.130;9.218;2022-12-18T11:16:58;2.63;;;2.38;;
61248;SDS011;47119;49.130;9.218;2022-12-18T11:19:31;4.47;;;2.92;;
61248;SDS011;47119;49.130;9.218;2022-12-18T11:22:02;6.78;;;4.90;;
61248;SDS011;47119;49.130;9.218;2022-12-18T11:24:53;8.27;;;4.38;;
61248;SDS011;47119;49.130;9.218;2022-12-18T11:27:25;5.80;;;4.07;;
61248;SDS011;47119;49.130;9.218;2022-12-18T11:30:06;8.82;;;4.35;;
61248;SDS011;47119;49.130;9.218;2022-12-18T11:32:38;6.82;;;3.55;;
61248;SDS011;47119;49.130;9.218;2022-12-18T11:35:14;3.55;;;2.47;;
61248;SDS011;47119;49.130;9.218;2022-12-18T11:37:47;3.20;;;2.33;;
61248;SDS011;47119;49.130;9.218;2022-12-18T11:40:26;9.30;;;4.10;;
61248;SDS011;47119;49.130;9.218;2022-12-18T11:43:02;4.15;;;3.35;;
61248;SDS011;47119;49.130;9.218;2022-12-18T11:45:40;8.05;;;4.47;;
61248;SDS011;47119;49.130;9.218;2022-12-18T11:48:18;3.78;;;2.95;;
61248;SDS011;47119;49.130;9.218;2022-12-18T11:50:52;11.90;;;4.40;;
61248;SDS011;47119;49.130;9.218;2022-12-18T11:53:21;6.13;;;3.88;;
61248;SDS011;47119;49.130;9.218;2022-12-18T11:55:59;4.07;;;3.55;;
61248;SDS011;47119;49.130;9.218;2022-12-18T11:58:51;7.25;;;3.88;;
61248;SDS011;47119;49.130;9.218;2022-12-18T12:01:34;8.60;;;3.38;;
61248;SDS011;47119;49.130;9.218;2022-12-18T12:04:22;7.03;;;3.80;;
61248;SDS011;47119;49.130;9.218;2022-12-18T12:07:13;6.30;;;3.92;;
61248;SDS011;47119;49.130;9.218;2022-12-18T12:10:00;3.25;;;2.50;;
61248;SDS011;47119;49.130;9.218;2022-12-18T12:12:48;3.72;;;3.38;;
61248;SDS011;47119;49.130;9.218;2022-12-18T12:15:37;6.10;;;2.30;;
61248;SDS011;47119;49.130;9.218;2022-12-18T12:18:21;3.63;;;2.92;;
61248;SDS011;47119;49.130;9.218;2022-12-18T12:21:06;2.17;;;2.03;;
61248;SDS011;47119;49.130;9.218;2022-12-18T12:23:48;4.40;;;3.13;;
61248;SDS011;47119;49.130;9.218;2022-12-18T12:26:29;6.95;;;3.28;;
61248;SDS011;47119;49.130;9.218;2022-12-18T12:33:05;8.75;;;3.22;;
61248;SDS011;47119;49.130;9.218;2022-12-18T12:35:52;13.57;;;4.55;;
61248;SDS011;47119;49.130;9.218;2022-12-18T12:38:37;4.65;;;3.90;;
61248;SDS011;47119;49.130;9.218;2022-12-18T12:41:12;3.60;;;2.63;;
61248;SDS011;47119;49.130;9.218;2022-12-18T12:43:58;2.45;;;2.25;;
61248;SDS011;47119;49.130;9.218;2022-12-18T12:46:32;4.97;;;2.22;;
61248;SDS011;47119;49.130;9.218;2022-12-18T12:49:09;3.25;;;2.95;;
61248;SDS011;47119;49.130;9.218;2022-12-18T12:51:42;5.35;;;3.25;;
61248;SDS011;47119;49.130;9.218;2022-12-18T12:54:14;6.95;;;2.90;;
61248;SDS011;47119;49.130;9.218;2022-12-18T12:56:47;6.30;;;3.00;;
61248;SDS011;47119;49.130;9.218;2022-12-18T12:59:24;5.45;;;4.68;;
61248;SDS011;47119;49.130;9.218;2022-12-18T13:02:09;4.30;;;3.90;;
61248;SDS011;47119;49.130;9.218;2022-12-18T13:05:38;2.15;;;2.03;;
61248;SDS011;47119;49.130;9.218;2022-12-18T13:08:30;1.70;;;1.60;;
61248;SDS011;47119;49.130;9.218;2022-12-18T13:17:59;2.38;;;2.17;;
61248;SDS011;47119;49.130;9.218;2022-12-18T13:20:07;4.15;;;2.75;;
61248;SDS011;47119;49.130;9.218;2022-12-18T13:26:32;3.30;;;3.03;;
61248;SDS011;47119;49.130;9.218;2022-12-18T13:29:03;3.45;;;2.55;;
61248;SDS011;47119;49.130;9.218;2022-12-18T13:31:57;1.98;;;1.88;;
61248;SDS011;47119;49.130;9.218;2022-12-18T13:34:46;11.15;;;2.78;;
61248;SDS011;47119;49.130;9.218;2022-12-18T13:37:42;1.90;;;1.80;;
61248;SDS011;47119;49.130;9.218;2022-12-18T13:40:54;5.05;;;3.08;;
61248;SDS011;47119;49.130;9.218;2022-12-18T13:43:39;1.20;;;1.20;;
61248;SDS011;47119;49.130;9.218;2022-12-18T13:46:42;3.17;;;2.53;;
61248;SDS011;47119;49.130;9.218;2022-12-18T13:49:20;2.22;;;2.13;;
61248;SDS011;47119;49.130;9.218;2022-12-18T13:51:58;4.80;;;3.75;;
61248;SDS011;47119;49.130;9.218;2022-12-18T13:54:41;4.57;;;3.80;;
61248;SDS011;47119;49.130;9.218;2022-12-18T13:57:25;9.43;;;4.30;;
61248;SDS011;47119;49.130;9.218;2022-12-18T14:00:16;2.90;;;2.42;;
61248;SDS011;47119;49.130;9.218;2022-12-18T14:03:19;3.08;;;2.83;;
61248;SDS011;47119;49.130;9.218;2022-12-18T14:06:04;1.75;;;1.48;;
61248;SDS011;47119;49.130;9.218;2022-12-18T14:08:43;3.33;;;3.03;;
61248;SDS011;47119;49.130;9.218;2022-12-18T14:11:22;2.80;;;2.65;;
61248;SDS011;47119;49.130;9.218;2022-12-18T14:13:58;3.00;;;2.78;;
61248;SDS011;47119;49.130;9.218;2022-12-18T14:16:29;4.18;;;3.80;;
61248;SDS011;47119;49.130;9.218;2022-12-18T14:19:04;3.88;;;3.17;;
61248;SDS011;47119;49.130;9.218;2022-12-18T14:21:49;7.13;;;4.35;;
61248;SDS011;47119;49.130;9.218;2022-12-18T14:24:33;6.93;;;2.90;;
61248;SDS011;47119;49.130;9.218;2022-12-18T14:31:38;2.58;;;2.38;;
61248;SDS011;47119;49.130;9.218;2022-12-18T14:35:13;4.72;;;3.30;;
61248;SDS011;47119;49.130;9.218;2022-12-18T14:40:21;2.22;;;2.13;;
61248;SDS011;47119;49.130;9.218;2022-12-18T14:43:10;5.85;;;3.08;;
61248;SDS011;47119;49.130;9.218;2022-12-18T14:45:45;2.65;;;2.45;;
61248;SDS011;47119;49.130;9.218;2022-12-18T14:48:19;4.07;;;3.63;;
61248;SDS011;47119;49.130;9.218;2022-12-18T14:51:06;2.65;;;2.35;;
61248;SDS011;47119;49.130;9.218;2022-12-18T14:53:48;2.17;;;2.08;;
61248;SDS011;47119;49.130;9.218;2022-12-18T14:56:24;2.75;;;2.55;;
61248;SDS011;47119;49.130;9.218;2022-12-18T14:59:02;3.30;;;2.22;;
61248;SDS011;47119;49.130;9.218;2022-12-18T15:02:01;5.80;;;3.72;;
61248;SDS011;47119;49.130;9.218;2022-12-18T15:04:58;4.47;;;4.10;;
61248;SDS011;47119;49.130;9.218;2022-12-18T15:07:39;4.88;;;2.22;;
61248;SDS011;47119;49.130;9.218;2022-12-18T15:10:14;4.45;;;3.83;;
61248;SDS011;47119;49.130;9.218;2022-12-18T15:13:06;2.75;;;2.38;;
61248;SDS011;47119;49.130;9.218;2022-12-18T15:15:57;4.43;;;3.28;;
61248;SDS011;47119;49.130;9.218;2022-12-18T15:18:32;5.90;;;4.18;;
61248;SDS011;47119;49.130;9.218;2022-12-18T15:21:19;5.25;;;4.28;;
61248;SDS011;47119;49.130;9.218;2022-12-18T15:26:21;3.35;;;2.53;;
61248;SDS011;47119;49.130;9.218;2022-12-18T15:28:49;6.30;;;4.88;;
61248;SDS011;47119;49.130;9.218;2022-12-18T15:31:30;4.72;;;3.20;;
61248;SDS011;47119;49.130;9.218;2022-12-18T15:34:10;3.95;;;3.33;;
61248;SDS011;47119;49.130;9.218;2022-12-18T15:36:56;5.80;;;5.00;;
61248;SDS011;47119;49.130;9.218;2022-12-18T15:39:41;15.80;;;5.15;;
61248;SDS011;47119;49.130;9.218;2022-12-18T15:42:08;2.55;;;2.35;;
61248;SDS011;47119;49.130;9.218;2022-12-18T15:44:54;10.93;;;3.92;;
61248;SDS011;47119;49.130;9.218;2022-12-18T15:47:21;5.18;;;4.68;;
61248;SDS011;47119;49.130;9.218;2022-12-18T15:49:58;6.90;;;4.50;;
61248;SDS011;47119;49.130;9.218;2022-12-18T15:52:30;4.18;;;3.88;;
61248;SDS011;47119;49.130;9.218;2022-12-18T15:55:08;3.45;;;3.15;;
61248;SDS011;47119;49.130;9.218;2022-12-18T15:57:56;11.05;;;5.13;;
61248;SDS011;47119;49.130;9.218;2022-12-18T16:00:23;4.45;;;3.00;;
61248;SDS011;47119;49.130;9.218;2022-12-18T16:02:52;7.57;;;4.72;;
61248;SDS011;47119;49.130;9.218;2022-12-18T16:05:20;8.30;;;5.95;;
61248;SDS011;47119;49.130;9.218;2022-12-18T16:07:50;6.60;;;3.53;;
61248;SDS011;47119;49.130;9.218;2022-12-18T16:10:19;3.05;;;2.85;;
61248;SDS011;47119;49.130;9.218;2022-12-18T16:12:47;6.22;;;3.42;;
61248;SDS011;47119;49.130;9.218;2022-12-18T16:15:16;4.07;;;3.63;;
61248;SDS011;47119;49.130;9.218;2022-12-18T16:17:46;4.55;;;4.15;;
61248;SDS011;47119;49.130;9.218;2022-12-18T16:20:15;6.70;;;4.88;;
61248;SDS011;47119;49.130;9.218;2022-12-18T16:22:46;7.80;;;4.30;;
61248;SDS011;47119;49.130;9.218;2022-12-18T16:25:17;6.55;;;3.97;;
61248;SDS011;47119;49.130;9.218;2022-12-18T16:27:50;12.23;;;4.95;;